createdAt,value
2022-12-22T00:00:51.822Z,97180.00
2022-12-22T00:06:11.944Z,97174.09
2022-12-22T00:11:32.666Z,97171.75
2022-12-22T00:16:55.701Z,97162.72
2022-12-22T00:22:20.211Z,97154.41
2022-12-22T00:27:49.134Z,97141.44
2022-12-22T00:33:09.251Z,97135.00
2022-12-22T00:38:38.189Z,97128.84
2022-12-22T00:43:58.331Z,97129.19
2022-12-22T00:49:18.920Z,97118.84
2022-12-22T00:54:41.199Z,97117.31
2022-12-22T01:00:01.432Z,97108.06
2022-12-22T01:05:21.675Z,97100.56
2022-12-22T01:10:45.112Z,97093.03
2022-12-22T01:16:05.557Z,97092.53
2022-12-22T01:21:27.342Z,97077.06
2022-12-22T01:26:47.397Z,97074.47
2022-12-22T01:32:07.428Z,97074.25
2022-12-22T01:37:27.542Z,97069.94
2022-12-22T01:42:51.368Z,97059.94
2022-12-22T01:48:11.278Z,97048.88
2022-12-22T01:53:36.365Z,97042.69
2022-12-22T01:59:02.323Z,97030.91
2022-12-22T02:04:23.154Z,97025.38
2022-12-22T02:10:11.393Z,97017.97
2022-12-22T02:15:41.295Z,97006.28
2022-12-22T02:21:01.366Z,96993.25
2022-12-22T02:26:47.883Z,96999.97
2022-12-22T02:32:08.028Z,96990.75
2022-12-22T02:37:32.838Z,96996.72
2022-12-22T02:42:59.943Z,96993.34
2022-12-22T02:48:28.331Z,96978.59
2022-12-22T02:53:50.441Z,96968.63
2022-12-22T02:59:11.095Z,96969.31
2022-12-22T03:04:31.383Z,96964.59
2022-12-22T03:09:51.574Z,96956.09
2022-12-22T03:15:11.765Z,96956.78
2022-12-22T03:20:32.025Z,96947.50
2022-12-22T03:25:52.165Z,96941.16
2022-12-22T03:31:05.957Z,96939.81
2022-12-22T03:36:08.419Z,96929.88
2022-12-22T03:41:29.954Z,96924.13
2022-12-22T03:46:31.758Z,96911.72
2022-12-22T03:51:34.450Z,96900.56
2022-12-22T03:56:36.549Z,96895.84
2022-12-22T04:01:44.832Z,96893.94
2022-12-22T04:06:47.327Z,96892.13
2022-12-22T04:12:07.588Z,96880.63
2022-12-22T04:17:09.890Z,96877.44
2022-12-22T04:22:11.565Z,96874.25
2022-12-22T04:27:13.144Z,96872.09
2022-12-22T04:32:14.801Z,96868.25
2022-12-22T04:37:17.764Z,96867.44
2022-12-22T04:42:19.706Z,96866.88
2022-12-22T04:47:21.387Z,96862.84
2022-12-22T04:52:23.433Z,96855.28
2022-12-22T04:57:25.122Z,96851.63
2022-12-22T05:02:26.803Z,96844.16
2022-12-22T05:07:28.491Z,96838.81
2022-12-22T05:12:49.047Z,96829.94
2022-12-22T05:17:50.717Z,96829.50
2022-12-22T05:22:52.389Z,96820.44
2022-12-22T05:27:55.103Z,96822.34
2022-12-22T05:32:56.697Z,96812.06
2022-12-22T05:37:58.380Z,96809.50
2022-12-22T05:43:01.111Z,96797.53
2022-12-22T05:48:02.946Z,96792.97
2022-12-22T05:53:05.882Z,96797.28
2022-12-22T05:58:07.549Z,96800.72
2022-12-22T06:03:09.303Z,96799.22
2022-12-22T06:08:11.043Z,96802.25
2022-12-22T06:13:12.992Z,96794.31
2022-12-22T06:18:14.921Z,96789.97
2022-12-22T06:23:16.500Z,96783.16
2022-12-22T06:28:18.134Z,96777.00
2022-12-22T06:33:20.364Z,96776.56
2022-12-22T06:38:21.993Z,96771.09
2022-12-22T06:43:23.678Z,96758.44
2022-12-22T06:48:25.291Z,96760.88
2022-12-22T06:53:27.259Z,96760.16
2022-12-22T06:58:28.842Z,96763.88
2022-12-22T07:03:30.637Z,96752.19
2022-12-22T07:08:32.426Z,96748.13
2022-12-22T07:13:35.033Z,96754.97
2022-12-22T07:18:39.925Z,96742.66
2022-12-22T07:23:41.679Z,96742.00
2022-12-22T07:28:43.500Z,96738.34
2022-12-22T07:33:45.191Z,96735.34
2022-12-22T07:38:49.918Z,96721.38
2022-12-22T07:43:54.041Z,96719.00
2022-12-22T07:49:14.329Z,96719.88
2022-12-22T07:54:16.333Z,96715.53
2022-12-22T07:59:18.306Z,96713.66
2022-12-22T08:04:20.009Z,96711.53
2022-12-22T08:09:23.061Z,96705.41
2022-12-22T08:14:24.729Z,96701.03
2022-12-22T08:19:26.367Z,96700.66
2022-12-22T08:24:28.077Z,96693.50
2022-12-22T08:29:36.158Z,96692.91
2022-12-22T08:34:37.988Z,96681.19
2022-12-22T08:39:42.979Z,96683.19
2022-12-22T08:44:46.044Z,96682.59
2022-12-22T08:49:48.226Z,96682.03
2022-12-22T08:54:49.845Z,96682.63
2022-12-22T08:59:51.495Z,96673.66
2022-12-22T09:04:53.086Z,96672.66
2022-12-22T09:09:54.890Z,96665.88
2022-12-22T09:14:56.991Z,96665.66
2022-12-22T09:19:58.662Z,96664.88
2022-12-22T09:25:00.347Z,96662.28
2022-12-22T09:30:02.010Z,96654.28
2022-12-22T09:35:03.991Z,96636.88
2022-12-22T09:40:06.555Z,96630.69
2022-12-22T09:45:20.246Z,96631.88
2022-12-22T09:50:25.378Z,96628.09
2022-12-22T09:55:43.315Z,96616.47
2022-12-22T10:00:50.969Z,96616.88
2022-12-22T10:06:10.915Z,96613.53
2022-12-22T10:11:18.142Z,96618.66
2022-12-22T10:16:26.408Z,96609.88
2022-12-22T10:21:28.172Z,96601.50
2022-12-22T10:26:33.744Z,96602.50
2022-12-22T10:31:39.962Z,96594.50
2022-12-22T10:36:48.439Z,96596.91
2022-12-22T10:41:51.675Z,96588.94
2022-12-22T10:46:55.718Z,96589.31
2022-12-22T10:52:10.124Z,96586.03
2022-12-22T10:57:15.050Z,96596.78
2022-12-22T11:02:28.595Z,96595.97
2022-12-22T11:07:40.262Z,96585.94
2022-12-22T11:13:10.488Z,96566.69
2022-12-22T11:18:34.115Z,96570.84
2022-12-22T11:23:50.834Z,96568.56
2022-12-22T11:29:04.927Z,96548.53
2022-12-22T11:34:09.833Z,96543.69
2022-12-22T11:39:36.840Z,96540.47
2022-12-22T11:44:53.530Z,96552.34
2022-12-22T11:50:58.415Z,96538.09
2022-12-22T11:56:07.063Z,96548.25
2022-12-22T12:01:26.140Z,96541.47
2022-12-22T12:06:31.163Z,96533.72
2022-12-22T12:11:43.143Z,96539.09
2022-12-22T12:17:13.147Z,96528.84
2022-12-22T12:22:30.283Z,96525.19
2022-12-22T12:28:10.768Z,96532.28
2022-12-22T12:33:22.905Z,96532.94
2022-12-22T12:39:07.630Z,96527.75
2022-12-22T12:44:17.399Z,96531.59
2022-12-22T12:49:34.455Z,96529.44
2022-12-22T12:54:41.854Z,96534.63
2022-12-22T12:59:43.836Z,96522.81
2022-12-22T13:05:01.127Z,96519.66
2022-12-22T13:10:07.756Z,96521.44
2022-12-22T13:15:30.802Z,96530.69
2022-12-22T13:20:35.277Z,96524.53
2022-12-22T13:25:49.019Z,96524.97
2022-12-22T13:31:04.915Z,96530.97
2022-12-22T13:36:15.363Z,96549.34
2022-12-22T13:41:26.497Z,96541.94
2022-12-22T13:46:30.589Z,96549.91
2022-12-22T13:51:36.860Z,96546.72
2022-12-22T13:56:46.561Z,96557.28
2022-12-22T14:01:50.230Z,96559.31
2022-12-22T14:06:52.404Z,96565.69
2022-12-22T14:12:00.387Z,96566.72
2022-12-22T14:17:24.775Z,96569.94
2022-12-22T14:22:40.041Z,96571.75
2022-12-22T14:27:48.763Z,96589.75
2022-12-22T14:32:55.948Z,96588.53
2022-12-22T14:38:19.354Z,96609.25
2022-12-22T14:43:21.129Z,96632.56
2022-12-22T14:48:30.231Z,96646.84
2022-12-22T14:53:45.457Z,96635.66
2022-12-22T14:58:49.482Z,96670.94
2022-12-22T15:03:59.777Z,96679.50
2022-12-22T15:09:07.336Z,96691.44
2022-12-22T15:14:16.340Z,96714.16
2022-12-22T15:19:22.560Z,96707.75
2022-12-22T15:24:24.678Z,96721.34
2022-12-22T15:29:26.517Z,96730.09
2022-12-22T15:34:30.961Z,96755.25
2022-12-22T15:39:32.791Z,96763.19
2022-12-22T15:44:38.647Z,96764.63
2022-12-22T15:49:40.938Z,96778.75
2022-12-22T15:54:42.902Z,96785.13
2022-12-22T15:59:44.849Z,96794.69
2022-12-22T16:04:46.627Z,96810.63
2022-12-22T16:09:48.752Z,96818.19
2022-12-22T16:14:54.955Z,96833.94
2022-12-22T16:19:57.120Z,96843.72
2022-12-22T16:25:00.825Z,96843.06
2022-12-22T16:30:03.485Z,96848.06
2022-12-22T16:35:11.419Z,96860.88
2022-12-22T16:40:13.523Z,96879.81
2022-12-22T16:45:22.772Z,96873.19
2022-12-22T16:50:32.562Z,96888.19
2022-12-22T16:55:35.919Z,96889.97
2022-12-22T17:00:38.912Z,96894.00
2022-12-22T17:05:45.209Z,96899.13
2022-12-22T17:10:47.643Z,96902.91
2022-12-22T17:15:49.477Z,96914.25
2022-12-22T17:21:00.648Z,96908.25
2022-12-22T17:26:10.611Z,96912.81
2022-12-22T17:31:17.750Z,96921.59
2022-12-22T17:36:35.842Z,96924.38
2022-12-22T17:41:37.885Z,96921.78
2022-12-22T17:46:39.770Z,96918.56
2022-12-22T17:51:42.019Z,96913.38
2022-12-22T17:56:43.869Z,96906.41
2022-12-22T18:01:45.930Z,96906.25
2022-12-22T18:06:48.057Z,96913.63
2022-12-22T18:11:50.961Z,96909.00
2022-12-22T18:16:53.111Z,96916.59
2022-12-22T18:21:54.944Z,96904.34
2022-12-22T18:26:56.706Z,96905.59
2022-12-22T18:31:58.602Z,96909.19
2022-12-22T18:37:01.833Z,96902.56
2022-12-22T18:42:04.243Z,96909.97
2022-12-22T18:47:06.154Z,96910.53
2022-12-22T18:52:26.344Z,96897.94
2022-12-22T18:57:28.153Z,96914.66
2022-12-22T19:02:30.681Z,96917.06
2022-12-22T19:07:32.656Z,96912.88
2022-12-22T19:12:34.687Z,96899.06
2022-12-22T19:17:36.581Z,96908.03
2022-12-22T19:22:38.407Z,96908.59
2022-12-22T19:27:40.603Z,96906.19
2022-12-22T19:32:48.039Z,96903.94
2022-12-22T19:37:52.228Z,96898.50
2022-12-22T19:42:56.045Z,96888.97
2022-12-22T19:47:57.999Z,96894.34
2022-12-22T19:53:00.100Z,96895.84
2022-12-22T19:58:02.629Z,96912.59
2022-12-22T20:03:06.246Z,96909.41
2022-12-22T20:08:08.338Z,96900.72
2022-12-22T20:13:16.515Z,96890.22
2022-12-22T20:18:23.965Z,96880.81
2022-12-22T20:23:28.129Z,96884.25
2022-12-22T20:28:32.504Z,96885.44
2022-12-22T20:33:34.990Z,96886.41
2022-12-22T20:38:39.769Z,96883.56
2022-12-22T20:43:41.917Z,96884.63
2022-12-22T20:48:59.202Z,96876.66
2022-12-22T20:54:01.331Z,96872.56
2022-12-22T20:59:16.771Z,96870.41
2022-12-22T21:04:19.550Z,96877.00
2022-12-22T21:09:22.011Z,96867.78
2022-12-22T21:14:23.800Z,96860.22
2022-12-22T21:19:25.575Z,96866.03
2022-12-22T21:24:27.400Z,96867.09
2022-12-22T21:29:29.855Z,96860.78
2022-12-22T21:34:31.710Z,96854.69
2022-12-22T21:39:39.384Z,96847.66
2022-12-22T21:44:41.428Z,96841.59
2022-12-22T21:49:43.233Z,96836.66
2022-12-22T21:54:45.167Z,96831.44
2022-12-22T21:59:47.088Z,96834.19
2022-12-22T22:04:54.674Z,96829.63
2022-12-22T22:10:04.142Z,96824.25
2022-12-22T22:15:07.244Z,96825.06
2022-12-22T22:20:12.804Z,96829.06
2022-12-22T22:25:15.993Z,96824.78
2022-12-22T22:30:25.296Z,96807.25
2022-12-22T22:35:27.494Z,96800.28
2022-12-22T22:40:29.352Z,96789.91
2022-12-22T22:45:31.196Z,96783.56
2022-12-22T22:50:33.188Z,96773.31
2022-12-22T22:55:35.062Z,96772.88
2022-12-22T23:00:38.246Z,96767.44
2022-12-22T23:05:40.070Z,96762.06
2022-12-22T23:10:48.356Z,96751.31
2022-12-22T23:15:58.631Z,96748.53
2022-12-22T23:21:02.215Z,96735.81
2022-12-22T23:26:04.737Z,96728.25
2022-12-22T23:31:11.197Z,96722.97
2022-12-22T23:36:13.139Z,96719.19
2022-12-22T23:41:15.187Z,96707.16
2022-12-22T23:46:17.890Z,96700.47
2022-12-22T23:51:20.782Z,96696.91
2022-12-22T23:56:23.181Z,96691.81
